Wrangell Airport
PAWG : now visible

Airfield :











YOU CAN JOIN US ON...

 
LOGIN :

Register | Disclaimer

   EN    FR    IT 

 









Legend :    VFR   Marginal VFR   IFR   Intensive IFR   Very Intensive IFR
Visi :
Ceiling :
>= 8 km
>= 3000ft
5 to 8 km
1000 to 3000 ft
1500m to 5 km
500 to 1000 ft
800 to 1500m
200 to 500 ft
< 800m
< 200 ft
Symbols :   Thunderstorms  Fog  Heavy snow  Heavy precipitations  Wind > 20 kt






- Airport Elevation : 49 ft
- IATA code : WRG


PAWG - Wrangell

CURRENT METAR :
  • 141256Z AUTO VRB03KT 9SM OVC004 02/01 A3007 RMK AO2 SLP184 T00170011 FZRANO TSNO

EXPIRED METARs :
  • 141209Z AUTO 00000KT 10SM OVC004 02/01 A3007 RMK AO2 FZRANO TSNO

TAF PAWG
Valid from the 14 at 12:00 until the 15 at 12:00 UTC


141124Z 1412/1512 08003KT P6SM OVC006
FM141600 VRB04KT P6SM OVC010
FM141900 VRB04KT P6SM SCT015 BKN050
FM150900 VRB04KT 3SM BR SCT003 AMD LTD TO CLD VIS AND WIND 1412/1415



MET'MAP, your aeronautical weather chart ! - Copyright ORBIFLY December 2007 - Disclaimer

ORBIFLY MET'MAP TEAM :

Programming & Development : Alexandra Zaïnal
Concept & original design : Baudouin d'Aumeries
Assistance for programming : Marc-Olivier Méhu
Technical & hardware support : Manuel Goepfert

Contact : metmap@orbifly.com




SOURCES & CREDITS :

   NOAA       Earth
Advisory